createdAt,value
2019-05-29T00:00:36.416Z,8.86
2019-05-29T00:01:41.874Z,8.89
2019-05-29T00:02:46.359Z,8.83
2019-05-29T00:03:51.531Z,8.88
2019-05-29T00:04:56.051Z,8.86
2019-05-29T00:06:01.195Z,8.82
2019-05-29T00:07:06.136Z,8.84
2019-05-29T00:08:12.396Z,8.84
2019-05-29T00:09:17.108Z,8.80
2019-05-29T00:10:22.362Z,8.79
2019-05-29T00:11:27.053Z,8.85
2019-05-29T00:12:33.665Z,8.85
2019-05-29T00:13:38.146Z,8.85
2019-05-29T00:14:43.150Z,8.77
2019-05-29T00:15:47.578Z,8.61
2019-05-29T00:16:52.589Z,8.68
2019-05-29T00:17:56.991Z,8.68
2019-05-29T00:19:02.537Z,8.56
2019-05-29T00:20:08.295Z,8.56
2019-05-29T00:21:14.718Z,8.63
2019-05-29T00:22:20.381Z,8.50
2019-05-29T00:23:25.380Z,8.52
2019-05-29T00:24:29.954Z,8.51
2019-05-29T00:25:35.042Z,8.45
2019-05-29T00:26:41.188Z,8.37
2019-05-29T00:27:46.353Z,8.41
2019-05-29T00:28:50.830Z,8.30
2019-05-29T00:29:55.861Z,8.32
2019-05-29T00:31:00.333Z,8.32
2019-05-29T00:32:06.781Z,8.32
2019-05-29T00:33:12.135Z,8.39
2019-05-29T00:34:17.317Z,8.38
2019-05-29T00:35:21.832Z,8.38
2019-05-29T00:36:26.989Z,8.34
2019-05-29T00:37:31.562Z,8.32
2019-05-29T00:38:36.555Z,8.28
2019-05-29T00:39:41.259Z,8.30
2019-05-29T00:40:46.710Z,8.30
2019-05-29T00:41:51.294Z,8.30
2019-05-29T00:42:56.831Z,8.29
2019-05-29T00:44:01.261Z,8.30
2019-05-29T00:45:09.323Z,8.32
2019-05-29T00:46:14.111Z,8.33
2019-05-29T00:47:19.120Z,8.33
2019-05-29T00:48:23.645Z,8.36
2019-05-29T00:49:28.671Z,8.36
2019-05-29T00:50:33.154Z,8.40
2019-05-29T00:51:38.239Z,8.41
2019-05-29T00:52:42.651Z,8.41
2019-05-29T00:53:47.714Z,8.45
2019-05-29T00:54:52.210Z,8.44
2019-05-29T00:55:57.237Z,8.46
2019-05-29T00:57:01.723Z,8.44
2019-05-29T00:58:06.791Z,8.54
2019-05-29T00:59:11.283Z,8.54
2019-05-29T01:00:17.770Z,8.63
2019-05-29T01:01:22.969Z,8.68
2019-05-29T01:02:28.036Z,8.67
2019-05-29T01:03:32.745Z,8.67
2019-05-29T01:04:37.741Z,8.66
2019-05-29T01:05:42.484Z,8.69
2019-05-29T01:06:47.509Z,8.73
2019-05-29T01:07:52.344Z,8.80
2019-05-29T01:08:58.394Z,8.83
2019-05-29T01:10:03.605Z,8.89
2019-05-29T01:11:08.620Z,8.87
2019-05-29T01:12:13.050Z,8.88
2019-05-29T01:13:19.227Z,8.86
2019-05-29T01:14:23.661Z,8.91
2019-05-29T01:15:28.659Z,8.92
2019-05-29T01:16:33.091Z,8.93
2019-05-29T01:17:38.082Z,8.96
2019-05-29T01:18:42.503Z,8.93
2019-05-29T01:19:47.514Z,8.93
2019-05-29T01:20:51.911Z,8.91
2019-05-29T01:21:57.782Z,8.84
2019-05-29T01:23:02.203Z,8.96
2019-05-29T01:24:07.286Z,8.96
2019-05-29T01:25:12.841Z,9.02
2019-05-29T01:26:18.605Z,9.02
2019-05-29T01:27:23.217Z,9.10
2019-05-29T01:28:28.510Z,9.10
2019-05-29T01:29:32.923Z,9.10
2019-05-29T01:30:37.995Z,9.11
2019-05-29T01:31:42.867Z,9.11
2019-05-29T01:32:47.858Z,9.17
2019-05-29T01:33:52.271Z,9.16
2019-05-29T01:34:57.265Z,9.13
2019-05-29T01:36:01.820Z,9.16
2019-05-29T01:37:06.908Z,9.16
2019-05-29T01:38:11.390Z,9.17
2019-05-29T01:39:17.240Z,9.16
2019-05-29T01:40:25.117Z,9.18
2019-05-29T01:41:28.427Z,9.18
2019-05-29T01:42:32.859Z,9.17
2019-05-29T01:43:37.847Z,9.22
2019-05-29T01:44:42.267Z,9.09
2019-05-29T01:45:47.263Z,9.15
2019-05-29T01:46:51.699Z,9.15
2019-05-29T01:47:56.689Z,9.18
2019-05-29T01:49:01.173Z,9.01
2019-05-29T01:50:08.690Z,9.01
2019-05-29T01:51:13.119Z,9.12
2019-05-29T01:52:18.137Z,9.10
2019-05-29T01:53:23.691Z,9.10
2019-05-29T01:54:29.205Z,9.15
2019-05-29T01:55:33.783Z,9.17
2019-05-29T01:56:39.192Z,9.17
2019-05-29T01:57:43.724Z,9.09
2019-05-29T01:58:48.863Z,9.09
2019-05-29T01:59:53.274Z,9.09
2019-05-29T02:00:58.277Z,9.05
2019-05-29T02:02:03.477Z,9.10
2019-05-29T02:03:09.647Z,9.08
2019-05-29T02:04:15.803Z,9.03
2019-05-29T02:05:22.029Z,9.03
2019-05-29T02:06:28.215Z,9.04
2019-05-29T02:07:33.360Z,8.98
2019-05-29T02:08:37.840Z,8.97
2019-05-29T02:09:42.838Z,8.87
2019-05-29T02:10:47.247Z,8.87
2019-05-29T02:11:52.276Z,8.92
2019-05-29T02:12:56.685Z,8.92
2019-05-29T02:14:01.686Z,8.87
2019-05-29T02:15:22.968Z,8.82
2019-05-29T02:16:16.500Z,8.84
2019-05-29T02:17:21.815Z,8.85
2019-05-29T02:18:30.353Z,8.86
2019-05-29T02:19:34.767Z,8.80
2019-05-29T02:20:39.754Z,8.78
2019-05-29T02:21:44.169Z,8.77
2019-05-29T02:22:49.252Z,8.72
2019-05-29T02:23:53.667Z,8.70
2019-05-29T02:24:58.658Z,8.65
2019-05-29T02:26:03.413Z,8.66
2019-05-29T02:27:08.848Z,8.63
2019-05-29T02:28:13.346Z,8.63
2019-05-29T02:29:18.726Z,8.64
2019-05-29T02:30:27.849Z,8.62
2019-05-29T02:31:30.252Z,8.58
2019-05-29T02:32:34.680Z,8.54
2019-05-29T02:33:40.023Z,8.49
2019-05-29T02:34:44.431Z,8.49
2019-05-29T02:35:49.760Z,8.50
2019-05-29T02:36:55.327Z,8.51
2019-05-29T02:38:00.731Z,8.46
2019-05-29T02:39:07.488Z,8.46
2019-05-29T02:40:13.019Z,8.46
2019-05-29T02:41:19.098Z,8.47
2019-05-29T02:42:25.107Z,8.44
2019-05-29T02:43:30.151Z,8.49
2019-05-29T02:44:35.507Z,8.46
2019-05-29T02:45:53.863Z,8.46
2019-05-29T02:46:46.681Z,8.48
2019-05-29T02:47:51.116Z,8.49
2019-05-29T02:48:56.113Z,8.47
2019-05-29T02:50:00.535Z,8.45
2019-05-29T02:51:05.595Z,8.48
2019-05-29T02:52:10.006Z,8.48
2019-05-29T02:53:15.022Z,8.46
2019-05-29T02:54:20.355Z,8.49
2019-05-29T02:55:26.927Z,8.46
2019-05-29T02:56:31.833Z,8.45
2019-05-29T02:57:36.851Z,8.47
2019-05-29T02:58:41.613Z,8.43
2019-05-29T02:59:46.603Z,8.41
2019-05-29T03:00:55.740Z,8.40
2019-05-29T03:02:00.817Z,8.43
2019-05-29T03:03:05.714Z,8.42
2019-05-29T03:04:10.779Z,8.40
2019-05-29T03:05:15.261Z,8.38
2019-05-29T03:06:22.166Z,8.41
2019-05-29T03:07:28.438Z,8.44
2019-05-29T03:08:34.511Z,8.42
2019-05-29T03:09:39.401Z,8.44
2019-05-29T03:10:44.576Z,8.45
2019-05-29T03:11:49.242Z,8.48
2019-05-29T03:12:54.380Z,8.47
2019-05-29T03:13:59.259Z,8.48
2019-05-29T03:15:05.482Z,8.53
2019-05-29T03:16:12.462Z,8.57
2019-05-29T03:17:16.648Z,8.64
2019-05-29T03:18:21.156Z,8.65
2019-05-29T03:19:27.896Z,8.68
2019-05-29T03:20:32.569Z,8.71
2019-05-29T03:21:38.072Z,8.75
2019-05-29T03:22:42.814Z,8.74
2019-05-29T03:23:47.912Z,8.69
2019-05-29T03:24:52.364Z,8.73
2019-05-29T03:25:57.324Z,8.78
2019-05-29T03:27:02.123Z,8.71
2019-05-29T03:28:07.512Z,8.75
2019-05-29T03:29:11.992Z,8.76
2019-05-29T03:30:17.424Z,8.79
2019-05-29T03:31:21.856Z,8.83
2019-05-29T03:32:30.661Z,8.81
2019-05-29T03:33:40.827Z,8.79
2019-05-29T03:34:46.447Z,8.81
2019-05-29T03:35:48.434Z,8.82
2019-05-29T03:36:53.303Z,8.83
2019-05-29T03:37:59.034Z,8.84
2019-05-29T03:39:05.652Z,8.93
2019-05-29T03:40:10.301Z,8.87
2019-05-29T03:41:15.428Z,8.96
2019-05-29T03:42:19.917Z,8.97
2019-05-29T03:43:26.168Z,9.03
2019-05-29T03:44:30.895Z,9.00
2019-05-29T03:45:38.040Z,9.06
2019-05-29T03:46:45.902Z,9.09
2019-05-29T03:47:49.459Z,9.08
2019-05-29T03:48:53.963Z,9.05
2019-05-29T03:49:59.378Z,9.13
2019-05-29T03:51:03.870Z,9.15
2019-05-29T03:52:08.964Z,9.12
2019-05-29T03:53:13.386Z,9.20
2019-05-29T03:54:18.402Z,9.21
2019-05-29T03:55:22.809Z,9.17
2019-05-29T03:56:28.226Z,9.26
2019-05-29T03:57:33.895Z,9.31
2019-05-29T03:58:39.421Z,9.41
2019-05-29T03:59:43.841Z,9.45
2019-05-29T04:00:49.840Z,9.55
2019-05-29T04:01:54.341Z,9.55
2019-05-29T04:02:59.575Z,9.52
2019-05-29T04:04:04.176Z,9.60
2019-05-29T04:05:10.179Z,9.71
2019-05-29T04:06:14.631Z,9.81
2019-05-29T04:07:20.034Z,9.74
2019-05-29T04:08:24.451Z,9.71
2019-05-29T04:09:31.104Z,9.71
2019-05-29T04:10:37.847Z,9.66
2019-05-29T04:12:03.530Z,9.78
2019-05-29T04:13:08.188Z,9.78
2019-05-29T04:14:13.454Z,9.74
2019-05-29T04:15:17.948Z,9.78
2019-05-29T04:16:25.117Z,9.89
2019-05-29T04:17:32.279Z,9.89
2019-05-29T04:18:40.495Z,10.04
2019-05-29T04:19:45.944Z,9.98
2019-05-29T04:20:52.488Z,9.98
2019-05-29T04:21:59.944Z,9.90
2019-05-29T04:23:08.176Z,9.92
2019-05-29T04:24:16.747Z,9.94
2019-05-29T04:25:21.826Z,9.89
2019-05-29T04:26:27.824Z,10.00
2019-05-29T04:27:36.370Z,10.15
2019-05-29T04:28:40.923Z,10.23
2019-05-29T04:29:47.492Z,10.23
2019-05-29T04:30:53.132Z,10.12
2019-05-29T04:31:58.240Z,10.01
2019-05-29T04:33:03.338Z,10.01
2019-05-29T04:34:08.402Z,10.07
2019-05-29T04:35:13.550Z,10.14
2019-05-29T04:36:18.565Z,10.09
2019-05-29T04:37:22.975Z,10.09
2019-05-29T04:38:28.702Z,10.20
2019-05-29T04:39:34.677Z,10.08
2019-05-29T04:40:39.902Z,10.01
2019-05-29T04:41:44.377Z,10.00
2019-05-29T04:42:50.168Z,10.01
2019-05-29T04:43:57.183Z,10.04
2019-05-29T04:45:01.726Z,10.04
2019-05-29T04:46:06.208Z,10.17
2019-05-29T04:47:12.512Z,10.11
2019-05-29T04:48:17.304Z,10.05
2019-05-29T04:49:22.320Z,10.09
2019-05-29T04:50:29.007Z,10.13
2019-05-29T04:51:35.398Z,10.31
2019-05-29T04:52:40.645Z,10.27
2019-05-29T04:53:45.726Z,10.25
2019-05-29T04:54:50.456Z,10.22
2019-05-29T04:55:55.854Z,10.23
2019-05-29T04:57:00.274Z,10.26
2019-05-29T04:58:05.273Z,10.34
2019-05-29T04:59:09.696Z,10.32
2019-05-29T05:00:15.079Z,10.38
2019-05-29T05:01:19.570Z,10.39
2019-05-29T05:02:24.577Z,10.33
2019-05-29T05:03:29.179Z,10.30
2019-05-29T05:04:35.173Z,10.51
2019-05-29T05:05:39.717Z,10.39
2019-05-29T05:06:44.729Z,10.52
2019-05-29T05:07:49.486Z,10.57
2019-05-29T05:08:54.826Z,10.49
2019-05-29T05:09:59.267Z,10.46
2019-05-29T05:11:04.500Z,10.77
2019-05-29T05:12:09.378Z,10.86
2019-05-29T05:13:14.821Z,10.72
2019-05-29T05:14:19.374Z,10.45
2019-05-29T05:15:24.389Z,10.40
2019-05-29T05:16:29.734Z,10.37
2019-05-29T05:17:36.059Z,10.35
2019-05-29T05:18:41.688Z,10.33
2019-05-29T05:19:46.738Z,10.33
2019-05-29T05:20:51.212Z,10.64
2019-05-29T05:21:56.641Z,10.88
2019-05-29T05:23:01.200Z,10.74
2019-05-29T05:24:06.690Z,10.68
2019-05-29T05:25:11.470Z,10.69
2019-05-29T05:26:16.471Z,10.46
2019-05-29T05:27:20.880Z,10.49
2019-05-29T05:28:25.879Z,10.60
2019-05-29T05:29:30.292Z,10.68
2019-05-29T05:30:36.453Z,10.79
2019-05-29T05:31:40.967Z,10.79
2019-05-29T05:32:46.069Z,10.71
2019-05-29T05:33:50.549Z,10.63
2019-05-29T05:34:55.584Z,10.63
2019-05-29T05:36:00.011Z,10.80
2019-05-29T05:37:05.145Z,10.92
2019-05-29T05:38:09.630Z,10.69
2019-05-29T05:39:14.627Z,10.72
2019-05-29T05:40:19.200Z,10.76
2019-05-29T05:41:24.219Z,10.88
2019-05-29T05:42:28.636Z,10.84
2019-05-29T05:43:34.926Z,10.85
2019-05-29T05:44:39.289Z,10.87
2019-05-29T05:45:44.320Z,10.93
2019-05-29T05:46:48.737Z,11.06
2019-05-29T05:47:57.831Z,11.06
2019-05-29T05:48:59.847Z,11.04
2019-05-29T05:50:06.815Z,11.09
2019-05-29T05:51:11.250Z,11.18
2019-05-29T05:52:16.235Z,11.22
2019-05-29T05:53:20.661Z,11.25
2019-05-29T05:54:26.733Z,11.45
2019-05-29T05:55:31.536Z,11.63
2019-05-29T05:56:37.623Z,11.86
2019-05-29T05:57:42.191Z,11.67
2019-05-29T05:58:47.483Z,11.82
2019-05-29T05:59:51.905Z,12.07
2019-05-29T06:00:57.080Z,11.77
2019-05-29T06:02:01.636Z,11.84
2019-05-29T06:03:06.773Z,11.85
2019-05-29T06:04:11.256Z,12.01
2019-05-29T06:05:16.532Z,11.95
2019-05-29T06:06:21.037Z,12.09
2019-05-29T06:07:26.027Z,12.13
2019-05-29T06:08:30.462Z,11.99
2019-05-29T06:09:36.172Z,12.05
2019-05-29T06:10:40.756Z,11.95
2019-05-29T06:11:45.883Z,11.87
2019-05-29T06:12:50.394Z,11.71
2019-05-29T06:13:55.461Z,11.79
2019-05-29T06:14:59.881Z,11.64
2019-05-29T06:16:05.138Z,11.87
2019-05-29T06:17:10.033Z,11.90
2019-05-29T06:18:21.237Z,12.10
2019-05-29T06:19:21.206Z,12.21
2019-05-29T06:20:26.475Z,12.11
2019-05-29T06:21:31.207Z,12.00
2019-05-29T06:22:36.940Z,11.87
2019-05-29T06:23:41.543Z,12.11
2019-05-29T06:24:46.670Z,12.03
2019-05-29T06:25:51.111Z,12.05
2019-05-29T06:26:56.114Z,12.18
2019-05-29T06:28:01.507Z,12.22
2019-05-29T06:29:06.834Z,12.41
2019-05-29T06:30:13.149Z,12.32
2019-05-29T06:31:18.176Z,12.37
2019-05-29T06:32:22.589Z,12.52
2019-05-29T06:33:27.592Z,12.81
2019-05-29T06:34:33.414Z,12.87
2019-05-29T06:35:39.653Z,13.08
2019-05-29T06:36:47.898Z,12.63
2019-05-29T06:37:51.077Z,12.58
2019-05-29T06:38:55.501Z,12.36
2019-05-29T06:40:00.877Z,12.35
2019-05-29T06:41:05.620Z,12.27
2019-05-29T06:42:10.758Z,11.88
2019-05-29T06:43:20.754Z,11.90
2019-05-29T06:44:25.771Z,11.82
2019-05-29T06:45:33.761Z,11.74
2019-05-29T06:46:40.285Z,11.54
2019-05-29T06:47:44.922Z,11.37
2019-05-29T06:48:59.538Z,11.49
2019-05-29T06:49:56.062Z,11.41
2019-05-29T06:51:01.138Z,11.34
2019-05-29T06:52:09.110Z,11.41
2019-05-29T06:53:12.404Z,11.58
2019-05-29T06:54:16.825Z,11.73
2019-05-29T06:55:22.176Z,11.93
2019-05-29T06:56:26.988Z,11.87
2019-05-29T06:57:32.051Z,12.11
2019-05-29T06:58:37.946Z,12.53
2019-05-29T06:59:44.612Z,12.59
2019-05-29T07:00:49.597Z,12.79
2019-05-29T07:01:54.660Z,13.13
2019-05-29T07:02:59.035Z,13.27
2019-05-29T07:04:12.030Z,12.97
2019-05-29T07:05:11.613Z,13.16
2019-05-29T07:06:17.021Z,12.63
2019-05-29T07:07:21.749Z,12.66
2019-05-29T07:08:38.228Z,12.44
2019-05-29T07:09:32.855Z,12.65
2019-05-29T07:10:38.506Z,12.94
2019-05-29T07:11:43.543Z,12.72
2019-05-29T07:12:48.611Z,12.71
2019-05-29T07:13:53.034Z,12.83
2019-05-29T07:14:58.024Z,12.81
2019-05-29T07:16:02.449Z,12.95
2019-05-29T07:17:07.546Z,13.15
2019-05-29T07:18:11.958Z,13.33
2019-05-29T07:19:34.213Z,13.47
2019-05-29T07:20:23.220Z,13.52
2019-05-29T07:21:29.319Z,13.57
2019-05-29T07:22:33.813Z,13.45
2019-05-29T07:23:38.905Z,13.21
2019-05-29T07:24:43.545Z,13.08
2019-05-29T07:25:48.928Z,13.26
2019-05-29T07:26:53.375Z,13.38
2019-05-29T07:27:58.373Z,13.76
2019-05-29T07:29:08.357Z,14.08
2019-05-29T07:30:09.964Z,14.16
2019-05-29T07:31:14.453Z,13.72
2019-05-29T07:32:19.492Z,13.72
2019-05-29T07:33:23.971Z,13.79
2019-05-29T07:34:28.982Z,13.89
2019-05-29T07:35:33.406Z,13.67
2019-05-29T07:36:39.911Z,14.11
2019-05-29T07:37:45.925Z,14.13
2019-05-29T07:39:02.657Z,14.28
2019-05-29T07:39:58.378Z,13.97
2019-05-29T07:41:03.460Z,14.07
2019-05-29T07:42:07.897Z,13.47
2019-05-29T07:43:12.971Z,13.53
2019-05-29T07:44:17.387Z,13.74
2019-05-29T07:45:22.533Z,14.04
2019-05-29T07:46:27.012Z,14.19
2019-05-29T07:47:32.152Z,14.22
2019-05-29T07:48:38.347Z,14.22
2019-05-29T07:49:46.165Z,13.87
2019-05-29T07:50:49.510Z,14.13
2019-05-29T07:51:54.851Z,13.72
2019-05-29T07:52:59.453Z,13.69
2019-05-29T07:54:04.822Z,13.98
2019-05-29T07:55:09.574Z,14.10
2019-05-29T07:56:22.668Z,14.29
2019-05-29T07:57:21.911Z,13.83
2019-05-29T07:58:26.913Z,13.69
2019-05-29T07:59:32.303Z,13.48
2019-05-29T08:00:59.897Z,13.66
2019-05-29T08:01:44.827Z,14.20
2019-05-29T08:02:50.883Z,14.01
2019-05-29T08:03:55.356Z,14.07
2019-05-29T08:05:00.494Z,14.15
2019-05-29T08:06:05.460Z,13.79
2019-05-29T08:07:10.993Z,13.58
2019-05-29T08:08:15.421Z,13.98
2019-05-29T08:09:20.493Z,14.05
2019-05-29T08:10:25.044Z,14.31
2019-05-29T08:11:30.185Z,14.46
2019-05-29T08:12:34.722Z,14.40
2019-05-29T08:13:39.849Z,14.50
2019-05-29T08:14:44.264Z,13.98
2019-05-29T08:16:02.041Z,14.04
2019-05-29T08:16:55.375Z,13.94
2019-05-29T08:18:00.462Z,13.36
2019-05-29T08:19:08.011Z,13.39
2019-05-29T08:20:12.416Z,13.32
2019-05-29T08:21:16.833Z,13.61
2019-05-29T08:22:33.902Z,14.02
2019-05-29T08:23:28.038Z,13.89
2019-05-29T08:24:33.439Z,13.59
2019-05-29T08:25:37.853Z,13.89
2019-05-29T08:26:43.051Z,14.23
2019-05-29T08:27:48.754Z,14.33
2019-05-29T08:28:54.087Z,15.22
2019-05-29T08:29:58.495Z,15.74
2019-05-29T08:31:03.493Z,15.88
2019-05-29T08:32:09.090Z,15.49
2019-05-29T08:33:14.135Z,14.90
2019-05-29T08:34:18.530Z,14.60
2019-05-29T08:35:23.594Z,14.94
2019-05-29T08:36:28.003Z,14.98
2019-05-29T08:37:33.419Z,14.87
2019-05-29T08:38:38.838Z,14.55
2019-05-29T08:39:43.901Z,14.43
2019-05-29T08:40:49.629Z,14.33
2019-05-29T08:42:17.974Z,14.02
2019-05-29T08:43:00.767Z,13.94
2019-05-29T08:44:06.103Z,13.89
2019-05-29T08:45:10.658Z,13.71
2019-05-29T08:46:15.724Z,13.80
2019-05-29T08:47:20.137Z,13.98
2019-05-29T08:48:25.167Z,14.42
2019-05-29T08:49:29.860Z,14.69
2019-05-29T08:50:34.859Z,14.59
2019-05-29T08:51:39.290Z,14.61
2019-05-29T08:52:44.289Z,14.78
2019-05-29T08:53:52.161Z,15.19
2019-05-29T08:54:56.327Z,15.26
2019-05-29T08:56:00.815Z,15.33
2019-05-29T08:57:05.884Z,15.61
2019-05-29T08:58:10.324Z,15.33
2019-05-29T08:59:15.318Z,15.42
2019-05-29T09:00:20.183Z,15.50
2019-05-29T09:01:25.187Z,14.98
2019-05-29T09:02:29.618Z,14.65
2019-05-29T09:03:34.625Z,14.96
2019-05-29T09:04:39.449Z,15.19
2019-05-29T09:05:44.634Z,15.42
2019-05-29T09:06:49.252Z,15.53
2019-05-29T09:07:54.524Z,15.57
2019-05-29T09:08:58.917Z,15.00
2019-05-29T09:10:05.961Z,14.76
2019-05-29T09:11:10.817Z,14.67
2019-05-29T09:12:16.252Z,15.01
2019-05-29T09:13:20.840Z,15.47
2019-05-29T09:14:25.918Z,15.10
2019-05-29T09:15:30.321Z,15.33
2019-05-29T09:16:35.401Z,14.87
2019-05-29T09:17:39.891Z,15.04
2019-05-29T09:18:45.211Z,15.53
2019-05-29T09:19:49.615Z,16.06
2019-05-29T09:21:02.712Z,16.44
2019-05-29T09:22:01.868Z,16.64
2019-05-29T09:23:07.011Z,16.45
2019-05-29T09:24:14.104Z,16.61
2019-05-29T09:25:19.435Z,16.43
2019-05-29T09:26:25.982Z,16.23
2019-05-29T09:27:30.997Z,15.80
2019-05-29T09:28:35.716Z,15.95
2019-05-29T09:29:41.043Z,16.56
2019-05-29T09:30:45.537Z,16.51
2019-05-29T09:31:50.539Z,16.55
2019-05-29T09:32:54.953Z,15.81
2019-05-29T09:33:59.972Z,16.47
2019-05-29T09:35:05.436Z,16.65
2019-05-29T09:36:10.502Z,16.68
2019-05-29T09:37:16.101Z,16.11
2019-05-29T09:38:22.929Z,16.17
2019-05-29T09:39:27.513Z,16.90
2019-05-29T09:40:32.516Z,17.43
2019-05-29T09:41:37.071Z,17.65
2019-05-29T09:42:42.068Z,17.38
2019-05-29T09:43:58.280Z,17.45
2019-05-29T09:44:53.941Z,17.19
2019-05-29T09:46:02.071Z,16.74
2019-05-29T09:47:05.193Z,16.30
2019-05-29T09:48:09.631Z,16.02
2019-05-29T09:49:16.644Z,15.95
2019-05-29T09:50:23.374Z,15.78
2019-05-29T09:51:28.500Z,15.83
2019-05-29T09:52:32.927Z,16.19
2019-05-29T09:53:38.342Z,16.19
2019-05-29T09:54:43.164Z,16.17
2019-05-29T09:55:48.175Z,16.66
2019-05-29T09:56:54.816Z,17.09
2019-05-29T09:58:00.726Z,16.82
2019-05-29T09:59:06.647Z,16.65
2019-05-29T10:00:12.217Z,16.53
2019-05-29T10:01:23.410Z,16.11
2019-05-29T10:02:23.762Z,16.52
2019-05-29T10:03:28.188Z,16.48
2019-05-29T10:04:33.201Z,15.52
2019-05-29T10:05:37.620Z,15.68
2019-05-29T10:06:42.735Z,15.25
2019-05-29T10:07:47.154Z,15.33
2019-05-29T10:08:54.222Z,15.73
2019-05-29T10:10:01.140Z,15.82
2019-05-29T10:11:10.737Z,16.23
2019-05-29T10:12:12.486Z,16.69
2019-05-29T10:13:17.485Z,16.86
2019-05-29T10:14:21.946Z,17.10
2019-05-29T10:15:27.094Z,17.27
2019-05-29T10:16:31.571Z,17.26
2019-05-29T10:17:36.618Z,17.73
2019-05-29T10:18:41.031Z,17.83
2019-05-29T10:19:46.189Z,18.12
2019-05-29T10:20:50.601Z,17.64
2019-05-29T10:21:56.836Z,17.10
2019-05-29T10:23:03.058Z,17.17
2019-05-29T10:24:08.489Z,16.35
2019-05-29T10:25:13.658Z,15.91
2019-05-29T10:26:18.832Z,15.98
2019-05-29T10:27:23.252Z,16.22
2019-05-29T10:28:48.387Z,15.98
2019-05-29T10:29:34.476Z,15.68
2019-05-29T10:30:39.447Z,15.99
2019-05-29T10:31:45.841Z,16.40
2019-05-29T10:32:50.652Z,16.87
2019-05-29T10:33:55.085Z,17.67
2019-05-29T10:35:00.136Z,18.24
2019-05-29T10:36:04.740Z,17.48
2019-05-29T10:37:09.795Z,18.17
2019-05-29T10:38:14.484Z,17.60
2019-05-29T10:39:19.486Z,18.26
2019-05-29T10:40:24.055Z,18.30
2019-05-29T10:41:29.126Z,18.15
2019-05-29T10:42:33.604Z,18.05
2019-05-29T10:43:38.676Z,17.60
2019-05-29T10:44:43.407Z,16.54
2019-05-29T10:45:49.802Z,15.83
2019-05-29T10:46:56.327Z,15.79
2019-05-29T10:48:01.098Z,15.11
2019-05-29T10:49:06.258Z,15.52
2019-05-29T10:50:11.562Z,15.65
2019-05-29T10:51:16.040Z,15.57
2019-05-29T10:52:21.391Z,15.33
2019-05-29T10:53:25.828Z,15.18
2019-05-29T10:54:30.820Z,14.93
2019-05-29T10:55:35.266Z,14.73
2019-05-29T10:56:40.630Z,14.85
2019-05-29T10:57:45.044Z,15.05
2019-05-29T10:58:56.401Z,15.64
2019-05-29T10:59:57.948Z,15.96
2019-05-29T11:01:03.044Z,16.12
2019-05-29T11:02:08.143Z,16.22
2019-05-29T11:03:13.145Z,16.96
2019-05-29T11:04:17.557Z,17.93
2019-05-29T11:05:22.720Z,18.04
2019-05-29T11:06:27.384Z,18.52
2019-05-29T11:07:32.451Z,18.15
2019-05-29T11:08:36.868Z,18.80
2019-05-29T11:09:44.770Z,18.32
2019-05-29T11:10:48.022Z,17.62
2019-05-29T11:11:55.253Z,16.84
2019-05-29T11:12:59.550Z,16.32
2019-05-29T11:14:04.788Z,16.06
2019-05-29T11:15:20.692Z,16.42
2019-05-29T11:16:16.333Z,16.43
2019-05-29T11:17:20.987Z,17.24
2019-05-29T11:18:26.350Z,16.56
2019-05-29T11:19:30.764Z,17.18
2019-05-29T11:20:35.848Z,17.22
2019-05-29T11:21:40.261Z,17.06
2019-05-29T11:22:45.715Z,17.26
2019-05-29T11:23:50.131Z,17.62
2019-05-29T11:24:56.585Z,17.57
2019-05-29T11:26:01.610Z,18.01
2019-05-29T11:27:07.820Z,17.69
2019-05-29T11:28:12.312Z,17.06
2019-05-29T11:29:17.385Z,16.07
2019-05-29T11:30:21.956Z,16.39
2019-05-29T11:31:26.960Z,17.00
2019-05-29T11:32:31.593Z,17.22
2019-05-29T11:33:36.688Z,17.44
2019-05-29T11:34:41.101Z,17.13
2019-05-29T11:35:58.456Z,16.43
2019-05-29T11:36:52.674Z,16.32
2019-05-29T11:37:58.842Z,16.53
2019-05-29T11:39:06.568Z,16.71
2019-05-29T11:40:12.205Z,17.00
2019-05-29T11:41:25.846Z,17.99
2019-05-29T11:42:27.185Z,17.66
2019-05-29T11:43:29.575Z,17.94
2019-05-29T11:44:34.712Z,18.87
2019-05-29T11:45:39.217Z,18.95
2019-05-29T11:46:44.220Z,19.63
2019-05-29T11:47:48.709Z,20.01
2019-05-29T11:48:55.121Z,20.44
2019-05-29T11:50:14.081Z,20.45
2019-05-29T11:51:07.807Z,19.67
2019-05-29T11:52:23.533Z,19.51
2019-05-29T11:53:19.429Z,19.15
2019-05-29T11:54:23.816Z,19.45
2019-05-29T11:55:28.887Z,19.35
2019-05-29T11:56:33.322Z,17.88
2019-05-29T11:57:39.688Z,17.69
2019-05-29T11:58:44.254Z,17.97
2019-05-29T11:59:49.260Z,18.06
2019-05-29T12:00:54.767Z,17.78
2019-05-29T12:02:01.044Z,18.22
2019-05-29T12:03:07.104Z,18.51
2019-05-29T12:04:25.413Z,19.16
2019-05-29T12:05:19.007Z,18.80
2019-05-29T12:06:24.034Z,19.01
2019-05-29T12:07:28.450Z,19.19
2019-05-29T12:08:33.455Z,19.28
2019-05-29T12:09:37.911Z,19.63
2019-05-29T12:10:43.165Z,19.83
2019-05-29T12:11:47.595Z,20.19
2019-05-29T12:12:53.387Z,20.42
2019-05-29T12:13:58.169Z,20.11
2019-05-29T12:15:11.070Z,19.36
2019-05-29T12:16:09.439Z,18.51
2019-05-29T12:17:14.443Z,18.45
2019-05-29T12:18:24.061Z,19.01
2019-05-29T12:19:25.695Z,19.36
2019-05-29T12:20:30.153Z,19.49
2019-05-29T12:21:35.247Z,19.29
2019-05-29T12:22:40.714Z,19.51
2019-05-29T12:23:45.709Z,19.36
2019-05-29T12:24:50.396Z,19.07
2019-05-29T12:26:16.435Z,19.80
2019-05-29T12:27:02.735Z,20.20
2019-05-29T12:28:07.991Z,20.45
2019-05-29T12:29:12.479Z,20.59
2019-05-29T12:30:18.485Z,20.65
2019-05-29T12:31:23.273Z,20.78
2019-05-29T12:32:28.346Z,19.21
2019-05-29T12:33:32.757Z,19.05
2019-05-29T12:34:45.149Z,19.67
2019-05-29T12:35:44.112Z,20.46
2019-05-29T12:36:49.206Z,20.66
2019-05-29T12:37:55.122Z,20.54
2019-05-29T12:39:02.044Z,21.20
2019-05-29T12:40:08.833Z,21.31
2019-05-29T12:41:13.972Z,20.42
2019-05-29T12:42:18.413Z,19.61
2019-05-29T12:43:27.211Z,18.99
2019-05-29T12:44:29.575Z,19.71
2019-05-29T12:45:34.812Z,19.29
2019-05-29T12:46:39.265Z,18.82
2019-05-29T12:47:44.401Z,19.53
2019-05-29T12:48:48.814Z,19.36
2019-05-29T12:49:53.812Z,19.75
2019-05-29T12:50:59.885Z,20.80
2019-05-29T12:52:07.926Z,21.31
2019-05-29T12:53:29.007Z,19.33
2019-05-29T12:54:18.810Z,19.00
2019-05-29T12:55:23.367Z,19.93
2019-05-29T12:56:29.678Z,19.77
2019-05-29T12:57:34.114Z,20.05
2019-05-29T12:58:39.529Z,19.16
2019-05-29T12:59:44.198Z,18.99
2019-05-29T13:00:49.193Z,18.83
2019-05-29T13:01:54.359Z,19.84
2019-05-29T13:03:00.764Z,20.60
2019-05-29T13:04:06.658Z,20.76
2019-05-29T13:05:19.821Z,21.23
2019-05-29T13:06:19.128Z,21.37
2019-05-29T13:07:24.148Z,20.51
2019-05-29T13:08:28.568Z,21.12
2019-05-29T13:09:33.572Z,21.59
2019-05-29T13:10:37.993Z,21.50
2019-05-29T13:11:43.343Z,21.25
2019-05-29T13:12:48.300Z,20.55
2019-05-29T13:13:54.326Z,19.63
2019-05-29T13:14:59.192Z,19.75
2019-05-29T13:16:05.234Z,20.10
2019-05-29T13:17:11.389Z,20.86
2019-05-29T13:18:16.388Z,20.71
2019-05-29T13:19:21.899Z,20.82
2019-05-29T13:20:27.392Z,20.54
2019-05-29T13:21:31.877Z,20.73
2019-05-29T13:22:37.333Z,20.74
2019-05-29T13:23:45.040Z,21.66
2019-05-29T13:24:48.471Z,22.03
2019-05-29T13:25:52.887Z,22.43
2019-05-29T13:26:59.512Z,22.30
2019-05-29T13:28:04.737Z,22.61
2019-05-29T13:29:11.165Z,22.89
2019-05-29T13:30:19.007Z,21.54
2019-05-29T13:31:24.082Z,21.16
2019-05-29T13:32:28.817Z,19.71
2019-05-29T13:33:35.155Z,20.52
2019-05-29T13:34:39.575Z,20.04
2019-05-29T13:35:44.713Z,19.46
2019-05-29T13:36:49.223Z,20.69
2019-05-29T13:37:54.227Z,21.23
2019-05-29T13:38:59.847Z,21.52
2019-05-29T13:40:08.425Z,21.35
2019-05-29T13:41:13.003Z,22.03
2019-05-29T13:42:18.167Z,20.90
2019-05-29T13:43:22.590Z,21.53
2019-05-29T13:44:27.580Z,22.23
2019-05-29T13:45:33.064Z,22.67
2019-05-29T13:46:38.105Z,21.85
2019-05-29T13:47:42.576Z,20.95
2019-05-29T13:48:47.589Z,20.51
2019-05-29T13:49:52.071Z,20.07
2019-05-29T13:50:57.073Z,21.08
2019-05-29T13:52:06.929Z,21.20
2019-05-29T13:53:09.264Z,20.47
2019-05-29T13:54:17.739Z,20.43
2019-05-29T13:55:20.509Z,20.07
2019-05-29T13:56:25.000Z,21.02
2019-05-29T13:57:30.085Z,21.85
2019-05-29T13:58:34.501Z,22.38
2019-05-29T13:59:39.504Z,22.27
2019-05-29T14:00:43.914Z,21.13
2019-05-29T14:01:49.207Z,20.60
2019-05-29T14:02:53.697Z,20.01
2019-05-29T14:03:58.697Z,19.77
2019-05-29T14:05:04.706Z,19.88
2019-05-29T14:06:09.883Z,19.54
2019-05-29T14:07:14.307Z,19.98
2019-05-29T14:08:19.392Z,19.35
2019-05-29T14:09:23.803Z,19.25